sensor_id;sensor_type;location;lat;lon;timestamp;P1;P2;P0
54553;PMS5003;40450;55.848;-3.572;2023-02-23T00:02:12;2;1;
54553;PMS5003;40450;55.848;-3.572;2023-02-23T00:04:42;1;1;
54553;PMS5003;40450;55.848;-3.572;2023-02-23T00:07:13;0;0;
54553;PMS5003;40450;55.848;-3.572;2023-02-23T00:09:43;0;0;
54553;PMS5003;40450;55.848;-3.572;2023-02-23T00:12:13;1;1;
54553;PMS5003;40450;55.848;-3.572;2023-02-23T00:14:44;1;0;
54553;PMS5003;40450;55.848;-3.572;2023-02-23T00:17:15;2;0;
54553;PMS5003;40450;55.848;-3.572;2023-02-23T00:19:46;1;1;
54553;PMS5003;40450;55.848;-3.572;2023-02-23T00:22:15;1;1;
54553;PMS5003;40450;55.848;-3.572;2023-02-23T00:24:46;0;0;
54553;PMS5003;40450;55.848;-3.572;2023-02-23T00:27:16;3;1;
54553;PMS5003;40450;55.848;-3.572;2023-02-23T00:29:47;0;0;
54553;PMS5003;40450;55.848;-3.572;2023-02-23T00:32:17;1;1;
54553;PMS5003;40450;55.848;-3.572;2023-02-23T00:34:47;1;1;
54553;PMS5003;40450;55.848;-3.572;2023-02-23T00:37:18;0;0;
54553;PMS5003;40450;55.848;-3.572;2023-02-23T00:39:49;0;0;
54553;PMS5003;40450;55.848;-3.572;2023-02-23T00:42:19;1;1;
54553;PMS5003;40450;55.848;-3.572;2023-02-23T00:44:49;0;0;
54553;PMS5003;40450;55.848;-3.572;2023-02-23T00:47:20;3;1;
54553;PMS5003;40450;55.848;-3.572;2023-02-23T00:49:50;1;1;
54553;PMS5003;40450;55.848;-3.572;2023-02-23T00:52:21;2;1;
54553;PMS5003;40450;55.848;-3.572;2023-02-23T00:54:51;1;1;
54553;PMS5003;40450;55.848;-3.572;2023-02-23T00:57:22;1;1;
54553;PMS5003;40450;55.848;-3.572;2023-02-23T00:59:52;1;1;
54553;PMS5003;40450;55.848;-3.572;2023-02-23T01:02:23;1;1;
54553;PMS5003;40450;55.848;-3.572;2023-02-23T01:04:53;2;2;
54553;PMS5003;40450;55.848;-3.572;2023-02-23T01:07:24;1;1;
54553;PMS5003;40450;55.848;-3.572;2023-02-23T01:09:54;1;1;
54553;PMS5003;40450;55.848;-3.572;2023-02-23T01:12:25;1;1;
54553;PMS5003;40450;55.848;-3.572;2023-02-23T01:14:56;1;1;
54553;PMS5003;40450;55.848;-3.572;2023-02-23T01:17:26;1;1;
54553;PMS5003;40450;55.848;-3.572;2023-02-23T01:19:56;0;0;
54553;PMS5003;40450;55.848;-3.572;2023-02-23T01:22:26;0;0;
54553;PMS5003;40450;55.848;-3.572;2023-02-23T01:24:57;1;1;
54553;PMS5003;40450;55.848;-3.572;2023-02-23T01:27:27;0;0;
54553;PMS5003;40450;55.848;-3.572;2023-02-23T01:29:58;1;1;
54553;PMS5003;40450;55.848;-3.572;2023-02-23T01:32:28;2;1;
54553;PMS5003;40450;55.848;-3.572;2023-02-23T01:34:59;1;1;
54553;PMS5003;40450;55.848;-3.572;2023-02-23T01:37:29;0;0;
54553;PMS5003;40450;55.848;-3.572;2023-02-23T01:40:00;1;1;
54553;PMS5003;40450;55.848;-3.572;2023-02-23T01:42:30;0;0;
54553;PMS5003;40450;55.848;-3.572;2023-02-23T01:47:31;0;0;
54553;PMS5003;40450;55.848;-3.572;2023-02-23T01:50:01;0;0;
54553;PMS5003;40450;55.848;-3.572;2023-02-23T01:52:32;0;0;
54553;PMS5003;40450;55.848;-3.572;2023-02-23T01:55:03;4;4;
54553;PMS5003;40450;55.848;-3.572;2023-02-23T01:57:33;0;0;
54553;PMS5003;40450;55.848;-3.572;2023-02-23T02:00:05;2;2;
54553;PMS5003;40450;55.848;-3.572;2023-02-23T02:02:34;3;3;
54553;PMS5003;40450;55.848;-3.572;2023-02-23T02:05:05;2;1;
54553;PMS5003;40450;55.848;-3.572;2023-02-23T02:07:35;0;0;
54553;PMS5003;40450;55.848;-3.572;2023-02-23T02:10:06;1;1;
54553;PMS5003;40450;55.848;-3.572;2023-02-23T02:12:36;2;1;
54553;PMS5003;40450;55.848;-3.572;2023-02-23T02:15:07;1;1;
54553;PMS5003;40450;55.848;-3.572;2023-02-23T02:17:38;2;2;
54553;PMS5003;40450;55.848;-3.572;2023-02-23T02:27:46;0;0;
54553;PMS5003;40450;55.848;-3.572;2023-02-23T02:32:45;1;1;
54553;PMS5003;40450;55.848;-3.572;2023-02-23T02:37:44;1;1;
54553;PMS5003;40450;55.848;-3.572;2023-02-23T02:40:13;0;0;
54553;PMS5003;40450;55.848;-3.572;2023-02-23T02:42:46;0;0;
54553;PMS5003;40450;55.848;-3.572;2023-02-23T02:45:14;0;0;
54553;PMS5003;40450;55.848;-3.572;2023-02-23T02:47:44;0;0;
54553;PMS5003;40450;55.848;-3.572;2023-02-23T02:50:14;0;0;
54553;PMS5003;40450;55.848;-3.572;2023-02-23T02:52:44;0;0;
54553;PMS5003;40450;55.848;-3.572;2023-02-23T02:55:15;0;0;
54553;PMS5003;40450;55.848;-3.572;2023-02-23T02:57:45;0;0;
54553;PMS5003;40450;55.848;-3.572;2023-02-23T03:00:16;0;0;
54553;PMS5003;40450;55.848;-3.572;2023-02-23T03:02:45;2;0;
54553;PMS5003;40450;55.848;-3.572;2023-02-23T03:05:17;0;0;
54553;PMS5003;40450;55.848;-3.572;2023-02-23T03:07:49;0;0;
54553;PMS5003;40450;55.848;-3.572;2023-02-23T03:10:18;0;0;
54553;PMS5003;40450;55.848;-3.572;2023-02-23T03:12:50;0;0;
54553;PMS5003;40450;55.848;-3.572;2023-02-23T03:15:23;0;0;
54553;PMS5003;40450;55.848;-3.572;2023-02-23T03:17:51;1;0;
54553;PMS5003;40450;55.848;-3.572;2023-02-23T03:20:20;2;0;
54553;PMS5003;40450;55.848;-3.572;2023-02-23T03:22:52;1;1;
54553;PMS5003;40450;55.848;-3.572;2023-02-23T03:25:21;2;2;
54553;PMS5003;40450;55.848;-3.572;2023-02-23T03:27:51;1;1;
54553;PMS5003;40450;55.848;-3.572;2023-02-23T03:30:22;0;0;
54553;PMS5003;40450;55.848;-3.572;2023-02-23T03:32:52;0;0;
54553;PMS5003;40450;55.848;-3.572;2023-02-23T03:35:22;1;1;
54553;PMS5003;40450;55.848;-3.572;2023-02-23T03:37:53;0;0;
54553;PMS5003;40450;55.848;-3.572;2023-02-23T03:40:24;1;1;
54553;PMS5003;40450;55.848;-3.572;2023-02-23T03:42:53;1;1;
54553;PMS5003;40450;55.848;-3.572;2023-02-23T03:45:24;1;1;
54553;PMS5003;40450;55.848;-3.572;2023-02-23T03:47:54;0;0;
54553;PMS5003;40450;55.848;-3.572;2023-02-23T03:50:28;0;0;
54553;PMS5003;40450;55.848;-3.572;2023-02-23T03:52:55;2;0;
54553;PMS5003;40450;55.848;-3.572;2023-02-23T03:55:26;0;0;
54553;PMS5003;40450;55.848;-3.572;2023-02-23T03:57:56;0;0;
54553;PMS5003;40450;55.848;-3.572;2023-02-23T04:00:28;0;0;
54553;PMS5003;40450;55.848;-3.572;2023-02-23T04:02:57;2;2;
54553;PMS5003;40450;55.848;-3.572;2023-02-23T04:05:27;1;1;
54553;PMS5003;40450;55.848;-3.572;2023-02-23T04:07:58;1;0;
54553;PMS5003;40450;55.848;-3.572;2023-02-23T04:10:29;0;0;
54553;PMS5003;40450;55.848;-3.572;2023-02-23T04:12:59;0;0;
54553;PMS5003;40450;55.848;-3.572;2023-02-23T04:15:30;0;0;
54553;PMS5003;40450;55.848;-3.572;2023-02-23T04:18:02;6;1;
54553;PMS5003;40450;55.848;-3.572;2023-02-23T04:20:30;1;1;
54553;PMS5003;40450;55.848;-3.572;2023-02-23T04:23:01;1;1;
54553;PMS5003;40450;55.848;-3.572;2023-02-23T04:25:31;0;0;
54553;PMS5003;40450;55.848;-3.572;2023-02-23T04:28:02;2;2;
54553;PMS5003;40450;55.848;-3.572;2023-02-23T04:30:32;2;2;
54553;PMS5003;40450;55.848;-3.572;2023-02-23T04:33:03;1;0;
54553;PMS5003;40450;55.848;-3.572;2023-02-23T04:35:34;3;2;
54553;PMS5003;40450;55.848;-3.572;2023-02-23T04:38:04;0;0;
54553;PMS5003;40450;55.848;-3.572;2023-02-23T04:40:34;1;1;
54553;PMS5003;40450;55.848;-3.572;2023-02-23T04:43:05;2;1;
54553;PMS5003;40450;55.848;-3.572;2023-02-23T04:45:35;1;1;
54553;PMS5003;40450;55.848;-3.572;2023-02-23T04:48:06;1;0;
54553;PMS5003;40450;55.848;-3.572;2023-02-23T04:50:36;0;0;
54553;PMS5003;40450;55.848;-3.572;2023-02-23T04:53:07;0;0;
54553;PMS5003;40450;55.848;-3.572;2023-02-23T04:55:37;1;0;
54553;PMS5003;40450;55.848;-3.572;2023-02-23T04:58:08;2;1;
54553;PMS5003;40450;55.848;-3.572;2023-02-23T05:00:38;0;0;
54553;PMS5003;40450;55.848;-3.572;2023-02-23T05:03:09;0;0;
54553;PMS5003;40450;55.848;-3.572;2023-02-23T05:05:39;0;0;
54553;PMS5003;40450;55.848;-3.572;2023-02-23T05:08:10;0;0;
54553;PMS5003;40450;55.848;-3.572;2023-02-23T05:10:40;1;1;
54553;PMS5003;40450;55.848;-3.572;2023-02-23T05:13:11;1;1;
54553;PMS5003;40450;55.848;-3.572;2023-02-23T05:15:41;0;0;
54553;PMS5003;40450;55.848;-3.572;2023-02-23T05:18:12;0;0;
54553;PMS5003;40450;55.848;-3.572;2023-02-23T05:20:42;0;0;
54553;PMS5003;40450;55.848;-3.572;2023-02-23T05:23:12;1;0;
54553;PMS5003;40450;55.848;-3.572;2023-02-23T05:25:43;0;0;
54553;PMS5003;40450;55.848;-3.572;2023-02-23T05:28:14;0;0;
54553;PMS5003;40450;55.848;-3.572;2023-02-23T05:30:44;1;1;
54553;PMS5003;40450;55.848;-3.572;2023-02-23T05:33:14;0;0;
54553;PMS5003;40450;55.848;-3.572;2023-02-23T05:35:45;0;0;
54553;PMS5003;40450;55.848;-3.572;2023-02-23T05:38:15;0;0;
54553;PMS5003;40450;55.848;-3.572;2023-02-23T05:40:46;1;1;
54553;PMS5003;40450;55.848;-3.572;2023-02-23T05:45:47;0;0;
54553;PMS5003;40450;55.848;-3.572;2023-02-23T05:48:22;0;0;
54553;PMS5003;40450;55.848;-3.572;2023-02-23T05:50:48;0;0;
54553;PMS5003;40450;55.848;-3.572;2023-02-23T05:53:18;2;0;
54553;PMS5003;40450;55.848;-3.572;2023-02-23T05:55:49;2;1;
54553;PMS5003;40450;55.848;-3.572;2023-02-23T05:58:20;0;0;
54553;PMS5003;40450;55.848;-3.572;2023-02-23T06:00:50;1;0;
54553;PMS5003;40450;55.848;-3.572;2023-02-23T06:03:20;1;1;
54553;PMS5003;40450;55.848;-3.572;2023-02-23T06:05:51;0;0;
54553;PMS5003;40450;55.848;-3.572;2023-02-23T06:08:22;1;0;
54553;PMS5003;40450;55.848;-3.572;2023-02-23T06:10:52;1;1;
54553;PMS5003;40450;55.848;-3.572;2023-02-23T06:13:23;0;0;
54553;PMS5003;40450;55.848;-3.572;2023-02-23T06:15:53;0;0;
54553;PMS5003;40450;55.848;-3.572;2023-02-23T06:18:24;2;1;
54553;PMS5003;40450;55.848;-3.572;2023-02-23T06:20:54;1;0;
54553;PMS5003;40450;55.848;-3.572;2023-02-23T06:23:25;0;0;
54553;PMS5003;40450;55.848;-3.572;2023-02-23T06:25:55;0;0;
54553;PMS5003;40450;55.848;-3.572;2023-02-23T06:28:26;0;0;
54553;PMS5003;40450;55.848;-3.572;2023-02-23T06:30:56;0;0;
54553;PMS5003;40450;55.848;-3.572;2023-02-23T06:33:27;0;0;
54553;PMS5003;40450;55.848;-3.572;2023-02-23T06:35:57;1;1;
54553;PMS5003;40450;55.848;-3.572;2023-02-23T06:38:27;0;0;
54553;PMS5003;40450;55.848;-3.572;2023-02-23T06:40:58;2;1;
54553;PMS5003;40450;55.848;-3.572;2023-02-23T06:43:29;2;2;
54553;PMS5003;40450;55.848;-3.572;2023-02-23T06:45:59;1;1;
54553;PMS5003;40450;55.848;-3.572;2023-02-23T06:48:29;1;1;
54553;PMS5003;40450;55.848;-3.572;2023-02-23T06:51:00;0;0;
54553;PMS5003;40450;55.848;-3.572;2023-02-23T06:53:30;3;3;
54553;PMS5003;40450;55.848;-3.572;2023-02-23T06:56:01;1;1;
54553;PMS5003;40450;55.848;-3.572;2023-02-23T06:58:31;2;1;
54553;PMS5003;40450;55.848;-3.572;2023-02-23T07:01:02;2;0;
54553;PMS5003;40450;55.848;-3.572;2023-02-23T07:03:32;2;2;
54553;PMS5003;40450;55.848;-3.572;2023-02-23T07:06:03;2;2;
54553;PMS5003;40450;55.848;-3.572;2023-02-23T07:08:34;2;2;
54553;PMS5003;40450;55.848;-3.572;2023-02-23T07:11:05;2;2;
54553;PMS5003;40450;55.848;-3.572;2023-02-23T07:13:34;0;0;
54553;PMS5003;40450;55.848;-3.572;2023-02-23T07:16:05;1;1;
54553;PMS5003;40450;55.848;-3.572;2023-02-23T07:18:35;1;1;
54553;PMS5003;40450;55.848;-3.572;2023-02-23T07:21:06;1;1;
54553;PMS5003;40450;55.848;-3.572;2023-02-23T07:23:36;2;1;
54553;PMS5003;40450;55.848;-3.572;2023-02-23T07:26:07;1;1;
54553;PMS5003;40450;55.848;-3.572;2023-02-23T07:28:37;1;1;
54553;PMS5003;40450;55.848;-3.572;2023-02-23T07:31:08;1;1;
54553;PMS5003;40450;55.848;-3.572;2023-02-23T07:33:38;1;1;
54553;PMS5003;40450;55.848;-3.572;2023-02-23T07:36:09;2;2;
54553;PMS5003;40450;55.848;-3.572;2023-02-23T07:38:39;3;1;
54553;PMS5003;40450;55.848;-3.572;2023-02-23T07:41:10;2;2;
54553;PMS5003;40450;55.848;-3.572;2023-02-23T07:43:40;4;2;
54553;PMS5003;40450;55.848;-3.572;2023-02-23T07:46:11;1;1;
54553;PMS5003;40450;55.848;-3.572;2023-02-23T07:48:43;3;3;
54553;PMS5003;40450;55.848;-3.572;2023-02-23T07:51:13;2;2;
54553;PMS5003;40450;55.848;-3.572;2023-02-23T07:53:43;2;2;
54553;PMS5003;40450;55.848;-3.572;2023-02-23T07:56:13;2;2;
54553;PMS5003;40450;55.848;-3.572;2023-02-23T07:58:43;3;2;
54553;PMS5003;40450;55.848;-3.572;2023-02-23T08:01:14;4;2;
54553;PMS5003;40450;55.848;-3.572;2023-02-23T08:03:44;3;2;
54553;PMS5003;40450;55.848;-3.572;2023-02-23T08:06:15;3;3;
54553;PMS5003;40450;55.848;-3.572;2023-02-23T08:08:45;4;4;
54553;PMS5003;40450;55.848;-3.572;2023-02-23T08:11:16;6;3;
54553;PMS5003;40450;55.848;-3.572;2023-02-23T08:13:46;3;2;
54553;PMS5003;40450;55.848;-3.572;2023-02-23T08:16:17;4;4;
54553;PMS5003;40450;55.848;-3.572;2023-02-23T08:18:47;9;9;
54553;PMS5003;40450;55.848;-3.572;2023-02-23T08:21:18;6;6;
54553;PMS5003;40450;55.848;-3.572;2023-02-23T08:23:48;8;7;
54553;PMS5003;40450;55.848;-3.572;2023-02-23T08:26:19;6;6;
54553;PMS5003;40450;55.848;-3.572;2023-02-23T08:28:49;2;2;
54553;PMS5003;40450;55.848;-3.572;2023-02-23T08:31:20;1;1;
54553;PMS5003;40450;55.848;-3.572;2023-02-23T08:33:51;4;3;
54553;PMS5003;40450;55.848;-3.572;2023-02-23T08:36:21;4;3;
54553;PMS5003;40450;55.848;-3.572;2023-02-23T08:38:51;3;3;
54553;PMS5003;40450;55.848;-3.572;2023-02-23T08:41:22;2;2;
54553;PMS5003;40450;55.848;-3.572;2023-02-23T08:43:52;2;2;
54553;PMS5003;40450;55.848;-3.572;2023-02-23T08:46:23;4;1;
54553;PMS5003;40450;55.848;-3.572;2023-02-23T08:48:54;3;0;
54553;PMS5003;40450;55.848;-3.572;2023-02-23T08:51:23;2;2;
54553;PMS5003;40450;55.848;-3.572;2023-02-23T08:53:54;3;2;
54553;PMS5003;40450;55.848;-3.572;2023-02-23T08:56:24;2;2;
54553;PMS5003;40450;55.848;-3.572;2023-02-23T08:58:54;5;5;
54553;PMS5003;40450;55.848;-3.572;2023-02-23T09:01:25;2;2;
54553;PMS5003;40450;55.848;-3.572;2023-02-23T09:03:55;6;6;
54553;PMS5003;40450;55.848;-3.572;2023-02-23T09:06:26;4;4;
54553;PMS5003;40450;55.848;-3.572;2023-02-23T09:08:56;7;7;
54553;PMS5003;40450;55.848;-3.572;2023-02-23T09:11:27;9;9;
54553;PMS5003;40450;55.848;-3.572;2023-02-23T09:13:58;5;5;
54553;PMS5003;40450;55.848;-3.572;2023-02-23T09:16:28;3;3;
54553;PMS5003;40450;55.848;-3.572;2023-02-23T09:18:58;7;7;
54553;PMS5003;40450;55.848;-3.572;2023-02-23T09:21:29;5;5;
54553;PMS5003;40450;55.848;-3.572;2023-02-23T09:23:59;5;3;
54553;PMS5003;40450;55.848;-3.572;2023-02-23T09:26:30;4;4;
54553;PMS5003;40450;55.848;-3.572;2023-02-23T09:29:00;3;3;
54553;PMS5003;40450;55.848;-3.572;2023-02-23T09:31:31;5;3;
54553;PMS5003;40450;55.848;-3.572;2023-02-23T09:34:01;4;4;
54553;PMS5003;40450;55.848;-3.572;2023-02-23T09:36:32;3;3;
54553;PMS5003;40450;55.848;-3.572;2023-02-23T09:39:02;5;3;
54553;PMS5003;40450;55.848;-3.572;2023-02-23T09:44:05;2;2;
54553;PMS5003;40450;55.848;-3.572;2023-02-23T09:46:36;4;4;
54553;PMS5003;40450;55.848;-3.572;2023-02-23T09:51:36;2;2;
54553;PMS5003;40450;55.848;-3.572;2023-02-23T09:54:05;3;3;
54553;PMS5003;40450;55.848;-3.572;2023-02-23T09:56:37;1;1;
54553;PMS5003;40450;55.848;-3.572;2023-02-23T09:59:10;2;2;
54553;PMS5003;40450;55.848;-3.572;2023-02-23T10:01:40;2;2;
54553;PMS5003;40450;55.848;-3.572;2023-02-23T10:04:09;3;3;
54553;PMS5003;40450;55.848;-3.572;2023-02-23T10:09:12;2;2;
54553;PMS5003;40450;55.848;-3.572;2023-02-23T10:11:39;4;2;
54553;PMS5003;40450;55.848;-3.572;2023-02-23T10:16:44;4;2;
54553;PMS5003;40450;55.848;-3.572;2023-02-23T10:19:18;3;2;
54553;PMS5003;40450;55.848;-3.572;2023-02-23T10:24:10;2;2;
54553;PMS5003;40450;55.848;-3.572;2023-02-23T10:29:18;2;2;
54553;PMS5003;40450;55.848;-3.572;2023-02-23T10:31:45;1;1;
54553;PMS5003;40450;55.848;-3.572;2023-02-23T10:36:45;2;2;
54553;PMS5003;40450;55.848;-3.572;2023-02-23T10:39:12;1;1;
54553;PMS5003;40450;55.848;-3.572;2023-02-23T10:44:16;2;2;
54553;PMS5003;40450;55.848;-3.572;2023-02-23T10:46:43;1;1;
54553;PMS5003;40450;55.848;-3.572;2023-02-23T10:49:15;1;1;
54553;PMS5003;40450;55.848;-3.572;2023-02-23T10:51:45;2;2;
54553;PMS5003;40450;55.848;-3.572;2023-02-23T10:56:46;2;1;
54553;PMS5003;40450;55.848;-3.572;2023-02-23T10:59:18;1;1;
54553;PMS5003;40450;55.848;-3.572;2023-02-23T11:01:47;1;1;
54553;PMS5003;40450;55.848;-3.572;2023-02-23T11:04:20;1;1;
54553;PMS5003;40450;55.848;-3.572;2023-02-23T11:06:50;3;3;
54553;PMS5003;40450;55.848;-3.572;2023-02-23T11:09:23;2;2;
54553;PMS5003;40450;55.848;-3.572;2023-02-23T11:14:22;1;1;
54553;PMS5003;40450;55.848;-3.572;2023-02-23T11:19:20;2;1;
54553;PMS5003;40450;55.848;-3.572;2023-02-23T11:21:50;2;2;
54553;PMS5003;40450;55.848;-3.572;2023-02-23T11:24:23;4;2;
54553;PMS5003;40450;55.848;-3.572;2023-02-23T11:26:51;2;2;
54553;PMS5003;40450;55.848;-3.572;2023-02-23T11:29:22;4;2;
54553;PMS5003;40450;55.848;-3.572;2023-02-23T11:31:51;1;1;
54553;PMS5003;40450;55.848;-3.572;2023-02-23T11:34:26;3;1;
54553;PMS5003;40450;55.848;-3.572;2023-02-23T11:39:26;2;2;
54553;PMS5003;40450;55.848;-3.572;2023-02-23T11:44:23;2;2;
54553;PMS5003;40450;55.848;-3.572;2023-02-23T11:46:54;1;1;
54553;PMS5003;40450;55.848;-3.572;2023-02-23T11:49:25;1;1;
54553;PMS5003;40450;55.848;-3.572;2023-02-23T11:51:54;2;2;
54553;PMS5003;40450;55.848;-3.572;2023-02-23T11:54:26;1;1;
54553;PMS5003;40450;55.848;-3.572;2023-02-23T11:56:55;2;2;
54553;PMS5003;40450;55.848;-3.572;2023-02-23T11:59:27;2;2;
54553;PMS5003;40450;55.848;-3.572;2023-02-23T12:01:58;4;2;
54553;PMS5003;40450;55.848;-3.572;2023-02-23T12:04:27;2;2;
54553;PMS5003;40450;55.848;-3.572;2023-02-23T12:09:28;5;4;
54553;PMS5003;40450;55.848;-3.572;2023-02-23T12:11:58;1;1;
54553;PMS5003;40450;55.848;-3.572;2023-02-23T12:14:29;3;2;
54553;PMS5003;40450;55.848;-3.572;2023-02-23T12:17:01;4;2;
54553;PMS5003;40450;55.848;-3.572;2023-02-23T12:19:30;3;3;
54553;PMS5003;40450;55.848;-3.572;2023-02-23T12:22:01;2;2;
54553;PMS5003;40450;55.848;-3.572;2023-02-23T12:24:34;2;1;
54553;PMS5003;40450;55.848;-3.572;2023-02-23T12:27:03;3;2;
54553;PMS5003;40450;55.848;-3.572;2023-02-23T12:29:32;2;2;
54553;PMS5003;40450;55.848;-3.572;2023-02-23T12:32:01;2;2;
54553;PMS5003;40450;55.848;-3.572;2023-02-23T12:34:35;3;2;
54553;PMS5003;40450;55.848;-3.572;2023-02-23T12:37:04;2;2;
54553;PMS5003;40450;55.848;-3.572;2023-02-23T12:39:34;1;1;
54553;PMS5003;40450;55.848;-3.572;2023-02-23T12:42:04;3;1;
54553;PMS5003;40450;55.848;-3.572;2023-02-23T12:44:36;0;0;
54553;PMS5003;40450;55.848;-3.572;2023-02-23T12:47:06;1;1;
54553;PMS5003;40450;55.848;-3.572;2023-02-23T12:49:34;4;4;
54553;PMS5003;40450;55.848;-3.572;2023-02-23T12:52:06;3;2;
54553;PMS5003;40450;55.848;-3.572;2023-02-23T12:54:35;2;2;
54553;PMS5003;40450;55.848;-3.572;2023-02-23T12:57:08;2;2;
54553;PMS5003;40450;55.848;-3.572;2023-02-23T12:59:43;3;3;
54553;PMS5003;40450;55.848;-3.572;2023-02-23T13:02:09;2;0;
54553;PMS5003;40450;55.848;-3.572;2023-02-23T13:04:45;1;1;
54553;PMS5003;40450;55.848;-3.572;2023-02-23T13:07:08;1;1;
54553;PMS5003;40450;55.848;-3.572;2023-02-23T13:09:40;1;1;
54553;PMS5003;40450;55.848;-3.572;2023-02-23T13:14:42;0;0;
54553;PMS5003;40450;55.848;-3.572;2023-02-23T13:17:11;1;1;
54553;PMS5003;40450;55.848;-3.572;2023-02-23T13:19:40;1;1;
54553;PMS5003;40450;55.848;-3.572;2023-02-23T13:22:13;3;1;
54553;PMS5003;40450;55.848;-3.572;2023-02-23T13:24:40;1;1;
54553;PMS5003;40450;55.848;-3.572;2023-02-23T13:27:12;4;2;
54553;PMS5003;40450;55.848;-3.572;2023-02-23T13:29:41;3;1;
54553;PMS5003;40450;55.848;-3.572;2023-02-23T13:32:11;1;1;
54553;PMS5003;40450;55.848;-3.572;2023-02-23T13:34:42;0;0;
54553;PMS5003;40450;55.848;-3.572;2023-02-23T13:37:13;1;1;
54553;PMS5003;40450;55.848;-3.572;2023-02-23T13:39:43;0;0;
54553;PMS5003;40450;55.848;-3.572;2023-02-23T13:42:20;1;1;
54553;PMS5003;40450;55.848;-3.572;2023-02-23T13:44:42;5;2;
54553;PMS5003;40450;55.848;-3.572;2023-02-23T13:47:14;1;1;
54553;PMS5003;40450;55.848;-3.572;2023-02-23T13:49:45;2;2;
54553;PMS5003;40450;55.848;-3.572;2023-02-23T13:52:18;2;2;
54553;PMS5003;40450;55.848;-3.572;2023-02-23T13:57:14;2;2;
54553;PMS5003;40450;55.848;-3.572;2023-02-23T13:59:45;1;1;
54553;PMS5003;40450;55.848;-3.572;2023-02-23T14:04:46;2;2;
54553;PMS5003;40450;55.848;-3.572;2023-02-23T14:07:17;0;0;
54553;PMS5003;40450;55.848;-3.572;2023-02-23T14:09:48;1;1;
54553;PMS5003;40450;55.848;-3.572;2023-02-23T14:12:21;1;1;
54553;PMS5003;40450;55.848;-3.572;2023-02-23T14:14:48;1;1;
54553;PMS5003;40450;55.848;-3.572;2023-02-23T14:22:19;1;1;
54553;PMS5003;40450;55.848;-3.572;2023-02-23T14:27:20;0;0;
54553;PMS5003;40450;55.848;-3.572;2023-02-23T14:34:51;2;2;
54553;PMS5003;40450;55.848;-3.572;2023-02-23T14:37:25;0;0;
54553;PMS5003;40450;55.848;-3.572;2023-02-23T14:39:51;2;2;
54553;PMS5003;40450;55.848;-3.572;2023-02-23T14:42:22;1;1;
54553;PMS5003;40450;55.848;-3.572;2023-02-23T14:44:52;2;2;
54553;PMS5003;40450;55.848;-3.572;2023-02-23T14:47:24;0;0;
54553;PMS5003;40450;55.848;-3.572;2023-02-23T14:49:53;1;1;
54553;PMS5003;40450;55.848;-3.572;2023-02-23T14:52:24;4;0;
54553;PMS5003;40450;55.848;-3.572;2023-02-23T14:57:24;1;1;
54553;PMS5003;40450;55.848;-3.572;2023-02-23T14:59:56;1;1;
54553;PMS5003;40450;55.848;-3.572;2023-02-23T15:02:26;1;1;
54553;PMS5003;40450;55.848;-3.572;2023-02-23T15:04:56;1;1;
54553;PMS5003;40450;55.848;-3.572;2023-02-23T15:07:27;1;1;
54553;PMS5003;40450;55.848;-3.572;2023-02-23T15:09:56;3;2;
54553;PMS5003;40450;55.848;-3.572;2023-02-23T15:12:27;2;2;
54553;PMS5003;40450;55.848;-3.572;2023-02-23T15:14:57;3;3;
54553;PMS5003;40450;55.848;-3.572;2023-02-23T15:17:27;4;2;
54553;PMS5003;40450;55.848;-3.572;2023-02-23T15:19:57;1;1;
54553;PMS5003;40450;55.848;-3.572;2023-02-23T15:22:28;3;2;
54553;PMS5003;40450;55.848;-3.572;2023-02-23T15:24:58;3;2;
54553;PMS5003;40450;55.848;-3.572;2023-02-23T15:27:29;1;1;
54553;PMS5003;40450;55.848;-3.572;2023-02-23T15:32:29;1;1;
54553;PMS5003;40450;55.848;-3.572;2023-02-23T15:34:59;1;1;
54553;PMS5003;40450;55.848;-3.572;2023-02-23T15:37:32;1;1;
54553;PMS5003;40450;55.848;-3.572;2023-02-23T15:40:00;2;1;
54553;PMS5003;40450;55.848;-3.572;2023-02-23T15:42:31;5;5;
54553;PMS5003;40450;55.848;-3.572;2023-02-23T15:45:02;2;1;
54553;PMS5003;40450;55.848;-3.572;2023-02-23T15:47:32;1;1;
54553;PMS5003;40450;55.848;-3.572;2023-02-23T15:50:04;0;0;
54553;PMS5003;40450;55.848;-3.572;2023-02-23T15:52:32;1;1;
54553;PMS5003;40450;55.848;-3.572;2023-02-23T15:55:04;1;1;
54553;PMS5003;40450;55.848;-3.572;2023-02-23T15:57:40;0;0;
54553;PMS5003;40450;55.848;-3.572;2023-02-23T16:00:04;1;1;
54553;PMS5003;40450;55.848;-3.572;2023-02-23T16:02:39;0;0;
54553;PMS5003;40450;55.848;-3.572;2023-02-23T16:05:07;1;1;
54553;PMS5003;40450;55.848;-3.572;2023-02-23T16:07:35;0;0;
54553;PMS5003;40450;55.848;-3.572;2023-02-23T16:10:17;1;1;
54553;PMS5003;40450;55.848;-3.572;2023-02-23T16:12:37;3;2;
54553;PMS5003;40450;55.848;-3.572;2023-02-23T16:17:38;2;1;
54553;PMS5003;40450;55.848;-3.572;2023-02-23T16:20:12;0;0;
54553;PMS5003;40450;55.848;-3.572;2023-02-23T16:22:37;0;0;
54553;PMS5003;40450;55.848;-3.572;2023-02-23T16:25:10;0;0;
54553;PMS5003;40450;55.848;-3.572;2023-02-23T16:27:40;0;0;
54553;PMS5003;40450;55.848;-3.572;2023-02-23T16:32:39;1;1;
54553;PMS5003;40450;55.848;-3.572;2023-02-23T16:35:13;0;0;
54553;PMS5003;40450;55.848;-3.572;2023-02-23T16:37:49;0;0;
54553;PMS5003;40450;55.848;-3.572;2023-02-23T16:40:12;1;1;
54553;PMS5003;40450;55.848;-3.572;2023-02-23T16:42:40;2;1;
54553;PMS5003;40450;55.848;-3.572;2023-02-23T16:45:12;1;1;
54553;PMS5003;40450;55.848;-3.572;2023-02-23T16:47:45;1;1;
54553;PMS5003;40450;55.848;-3.572;2023-02-23T16:50:13;1;1;
54553;PMS5003;40450;55.848;-3.572;2023-02-23T16:52:42;1;1;
54553;PMS5003;40450;55.848;-3.572;2023-02-23T16:55:12;0;0;
54553;PMS5003;40450;55.848;-3.572;2023-02-23T16:57:43;5;3;
54553;PMS5003;40450;55.848;-3.572;2023-02-23T17:00:13;5;4;
54553;PMS5003;40450;55.848;-3.572;2023-02-23T17:02:43;2;2;
54553;PMS5003;40450;55.848;-3.572;2023-02-23T17:05:16;1;1;
54553;PMS5003;40450;55.848;-3.572;2023-02-23T17:07:45;1;1;
54553;PMS5003;40450;55.848;-3.572;2023-02-23T17:10:16;5;5;
54553;PMS5003;40450;55.848;-3.572;2023-02-23T17:12:45;12;11;
54553;PMS5003;40450;55.848;-3.572;2023-02-23T17:15:16;6;6;
54553;PMS5003;40450;55.848;-3.572;2023-02-23T17:17:45;7;7;
54553;PMS5003;40450;55.848;-3.572;2023-02-23T17:20:17;23;22;
54553;PMS5003;40450;55.848;-3.572;2023-02-23T17:22:47;15;12;
54553;PMS5003;40450;55.848;-3.572;2023-02-23T17:25:17;35;26;
54553;PMS5003;40450;55.848;-3.572;2023-02-23T17:27:48;11;8;
54553;PMS5003;40450;55.848;-3.572;2023-02-23T17:30:18;9;5;
54553;PMS5003;40450;55.848;-3.572;2023-02-23T17:32:49;5;5;
54553;PMS5003;40450;55.848;-3.572;2023-02-23T17:35:19;8;8;
54553;PMS5003;40450;55.848;-3.572;2023-02-23T17:37:49;21;17;
54553;PMS5003;40450;55.848;-3.572;2023-02-23T17:40:20;13;8;
54553;PMS5003;40450;55.848;-3.572;2023-02-23T17:42:49;7;5;
54553;PMS5003;40450;55.848;-3.572;2023-02-23T17:45:20;19;16;
54553;PMS5003;40450;55.848;-3.572;2023-02-23T17:47:50;16;15;
54553;PMS5003;40450;55.848;-3.572;2023-02-23T17:50:20;9;8;
54553;PMS5003;40450;55.848;-3.572;2023-02-23T17:52:50;3;2;
54553;PMS5003;40450;55.848;-3.572;2023-02-23T17:55:21;2;2;
54553;PMS5003;40450;55.848;-3.572;2023-02-23T17:57:51;4;4;
54553;PMS5003;40450;55.848;-3.572;2023-02-23T18:00:21;2;1;
54553;PMS5003;40450;55.848;-3.572;2023-02-23T18:02:51;3;1;
54553;PMS5003;40450;55.848;-3.572;2023-02-23T18:05:22;0;0;
54553;PMS5003;40450;55.848;-3.572;2023-02-23T18:07:53;2;2;
54553;PMS5003;40450;55.848;-3.572;2023-02-23T18:10:23;1;1;
54553;PMS5003;40450;55.848;-3.572;2023-02-23T18:12:53;2;0;
54553;PMS5003;40450;55.848;-3.572;2023-02-23T18:15:23;1;1;
54553;PMS5003;40450;55.848;-3.572;2023-02-23T18:17:54;3;3;